Aeroporto :
LOGIN :

Iscrizione | Disclaimer

   EN    FR    IT 

 










Sommario :    VFR   VFR Marginale   IFR   IFR Intensivo   IFR Molto Intensivo
Visibilità : 
Base nubi : 
>= 8 km
>= 3000ft
5 / 8 km
1000 / 3000 ft
1500m / 5 km
500 / 1000 ft
800 / 1500m
200 / 500 ft
< 800m
< 200 ft
Simboli :   Temporali  Nebbia  Neve Forte  Precipitazioni Forti  Vento > 20 kt
SIGMETs :   Varie  Temporali  Ghiacco  Turbolenza  Onda orograficha  Ceneri Vulcaniche







- Altitudine del aeroporto : 245 ft
- Codice IATA : BIQ
- Carte del aeroporto


LFBZ - Biarritz

ULTIMO METAR :
  • 170700Z AUTO VRB02KT 9999 OVC009 18/16 Q1017 BECMG NSC

METARs OBSOLETI :
  • 170630Z AUTO VRB02KT 9999 BKN008 17/15 Q1017 BECMG NSC
  • 170600Z AUTO VRB02KT 9999 BKN008 17/15 Q1017 BECMG NSC
  • 170530Z AUTO 16002KT 9999 BKN008 16/15 Q1017 TEMPO BKN003 BECMG 26010KT
  • 170500Z AUTO 00000KT 9999 OVC007 16/15 Q1017 TEMPO 4000 BR BKN003 BECMG 26010KT
  • 170430Z AUTO 00000KT 9999 OVC007 16/15 Q1017 TEMPO 4000 BR BKN003 BECMG 26010KT

TAF TAF LFBZ
Valido dal 17 a 06 ore il 18 a 06 ore UTC


170500Z 1706/1806 VRB02KT 9999 BKN007
BECMG 1706/1709 10006KT CAVOK
PROB40 1712/1718 32010KT
FM172300 26006KT 9000 BKN007
TEMPO 1723/1801 26015G30KT
PROB40 1723/1804 4000 BR BKN003
Nessun NOTAM noto per questo aeroporto.



MetMap, La meteo Aeronautica in un colpo d'occhio ! - Copyright ORBIFLY Dicembre 2007 - Disclaimer

ORBIFLY MET'MAP TEAM :

Programmazione e sviluppo : Alexandra Zaïnal
Concezione e sviluppo : Baudouin d'Aumeries
Co-Programmazione e sviluppo : Marc-Olivier Méhu
Supporto tecnico e logistico : Manuel Goepfert
Aiuto per la traduzione : Arnaldo La Scala

Contatto : metmap@orbifly.com




FONTI E CREDITI :

   NOAA